createdAt,value
2023-05-04T00:00:34.434Z,99.90
2023-05-04T00:03:02.558Z,99.90
2023-05-04T00:05:30.603Z,99.90
2023-05-04T00:07:58.616Z,99.90
2023-05-04T00:10:27.965Z,99.90
2023-05-04T00:12:57.430Z,99.90
2023-05-04T00:15:25.511Z,99.90
2023-05-04T00:17:54.873Z,99.90
2023-05-04T00:20:22.910Z,99.90
2023-05-04T00:22:50.965Z,99.90
2023-05-04T00:25:19.009Z,99.90
2023-05-04T00:27:47.049Z,99.90
2023-05-04T00:30:16.693Z,99.90
2023-05-04T00:32:44.706Z,99.90
2023-05-04T00:35:12.727Z,99.90
2023-05-04T00:37:40.919Z,99.90
2023-05-04T00:40:09.812Z,99.90
2023-05-04T00:42:37.847Z,99.90
2023-05-04T00:45:06.203Z,99.90
2023-05-04T00:47:36.033Z,99.90
2023-05-04T00:50:04.787Z,99.90
2023-05-04T00:52:33.100Z,99.90
2023-05-04T00:55:01.727Z,99.90
2023-05-04T00:57:29.834Z,99.90
2023-05-04T00:59:57.875Z,99.90
2023-05-04T01:02:26.040Z,99.90
2023-05-04T01:04:55.433Z,99.90
2023-05-04T01:07:27.380Z,99.90
2023-05-04T01:09:58.740Z,99.90
2023-05-04T01:12:28.607Z,99.90
2023-05-04T01:14:57.341Z,99.90
2023-05-04T01:17:25.441Z,99.90
2023-05-04T01:19:55.028Z,99.90
2023-05-04T01:22:24.700Z,99.90
2023-05-04T01:24:52.716Z,99.90
2023-05-04T01:27:24.945Z,99.90
2023-05-04T01:29:56.574Z,99.90
2023-05-04T01:32:24.770Z,99.90
2023-05-04T01:34:52.813Z,99.90
2023-05-04T01:37:21.171Z,99.90
2023-05-04T01:39:50.640Z,99.90
2023-05-04T01:42:18.840Z,99.90
2023-05-04T01:44:46.862Z,99.90
2023-05-04T01:47:14.826Z,99.90
2023-05-04T01:49:42.881Z,99.90
2023-05-04T01:52:10.847Z,99.90
2023-05-04T01:54:38.850Z,99.90
2023-05-04T01:57:08.360Z,99.90
2023-05-04T01:59:36.358Z,99.90
2023-05-04T02:02:04.383Z,99.90
2023-05-04T02:04:32.430Z,99.90
2023-05-04T02:07:00.422Z,99.90
2023-05-04T02:09:28.421Z,99.90
2023-05-04T02:11:56.549Z,99.90
2023-05-04T02:14:25.989Z,99.90
2023-05-04T02:16:54.028Z,99.90
2023-05-04T02:19:22.039Z,99.90
2023-05-04T02:21:50.087Z,99.90
2023-05-04T02:24:18.098Z,99.90
2023-05-04T02:26:46.146Z,99.90
2023-05-04T02:29:14.110Z,99.90
2023-05-04T02:31:43.552Z,99.90
2023-05-04T02:34:11.566Z,99.90
2023-05-04T02:36:39.564Z,99.90
2023-05-04T02:39:21.391Z,99.90
2023-05-04T02:41:49.372Z,99.90
2023-05-04T02:44:17.372Z,99.90
2023-05-04T02:46:46.766Z,99.90
2023-05-04T02:49:14.737Z,99.90
2023-05-04T02:51:43.228Z,99.90
2023-05-04T02:54:11.228Z,99.90
2023-05-04T02:56:39.192Z,99.90
2023-05-04T02:59:07.157Z,99.90
2023-05-04T03:01:35.193Z,99.90
2023-05-04T03:04:04.623Z,99.90
2023-05-04T03:06:32.629Z,99.90
2023-05-04T03:09:00.802Z,99.90
2023-05-04T03:11:28.802Z,99.90
2023-05-04T03:13:56.750Z,99.90
2023-05-04T03:16:24.784Z,99.90
2023-05-04T03:18:52.835Z,99.90
2023-05-04T03:21:22.439Z,99.90
2023-05-04T03:23:50.481Z,99.90
2023-05-04T03:26:18.546Z,99.90
2023-05-04T03:28:46.519Z,99.90
2023-05-04T03:31:14.587Z,99.90
2023-05-04T03:33:42.585Z,99.90
2023-05-04T03:36:10.580Z,99.90
2023-05-04T03:38:39.872Z,99.90
2023-05-04T03:41:07.831Z,99.90
2023-05-04T03:43:35.777Z,99.90
2023-05-04T03:46:03.775Z,99.90
2023-05-04T03:48:31.802Z,99.90
2023-05-04T03:50:59.824Z,99.90
2023-05-04T03:53:27.809Z,99.90
2023-05-04T03:55:57.137Z,99.90
2023-05-04T03:58:25.140Z,99.90
2023-05-04T04:00:53.187Z,99.90
2023-05-04T04:03:21.455Z,99.90
2023-05-04T04:05:50.046Z,99.90
2023-05-04T04:08:18.065Z,99.90
2023-05-04T04:10:46.275Z,99.90
2023-05-04T04:13:15.701Z,99.90
2023-05-04T04:15:45.542Z,99.90
2023-05-04T04:18:13.708Z,99.90
2023-05-04T04:20:41.788Z,99.90
2023-05-04T04:23:09.768Z,99.90
2023-05-04T04:25:37.834Z,99.90
2023-05-04T04:28:05.900Z,99.90
2023-05-04T04:30:35.199Z,99.90
2023-05-04T04:33:03.590Z,99.90
2023-05-04T04:35:32.630Z,99.90
2023-05-04T04:38:02.892Z,99.90
2023-05-04T04:40:31.902Z,99.90
2023-05-04T04:42:59.876Z,99.90
2023-05-04T04:45:28.541Z,99.90
2023-05-04T04:47:57.996Z,99.90
2023-05-04T04:50:26.226Z,99.90
2023-05-04T04:52:54.257Z,99.90
2023-05-04T04:55:23.840Z,99.90
2023-05-04T04:57:52.495Z,99.90
2023-05-04T05:00:21.304Z,99.90
2023-05-04T05:02:49.365Z,99.90
2023-05-04T05:05:19.164Z,99.90
2023-05-04T05:07:47.620Z,99.90
2023-05-04T05:10:16.071Z,99.90
2023-05-04T05:12:44.206Z,99.90
2023-05-04T05:15:12.673Z,99.90
2023-05-04T05:17:40.680Z,99.90
2023-05-04T05:20:10.656Z,99.90
2023-05-04T05:22:40.259Z,99.90
2023-05-04T05:25:08.748Z,99.90
2023-05-04T05:27:38.349Z,99.90
2023-05-04T05:30:07.278Z,99.90
2023-05-04T05:32:35.684Z,99.90
2023-05-04T05:35:04.490Z,99.90
2023-05-04T05:37:32.601Z,99.90
2023-05-04T05:40:02.089Z,99.90
2023-05-04T05:42:30.137Z,99.90
2023-05-04T05:44:58.078Z,99.90
2023-05-04T05:47:26.084Z,99.90
2023-05-04T05:49:54.384Z,99.90
2023-05-04T05:52:22.378Z,99.90
2023-05-04T05:54:50.333Z,99.90
2023-05-04T05:57:20.815Z,99.90
2023-05-04T05:59:48.793Z,99.90
2023-05-04T06:02:16.919Z,99.90
2023-05-04T06:04:45.450Z,99.90
2023-05-04T06:07:14.629Z,99.90
2023-05-04T06:09:45.776Z,99.90
2023-05-04T06:12:15.165Z,99.90
2023-05-04T06:14:44.532Z,99.90
2023-05-04T06:17:12.669Z,99.90
2023-05-04T06:19:40.987Z,99.90
2023-05-04T06:22:08.930Z,99.90
2023-05-04T06:24:36.931Z,99.90
2023-05-04T06:27:04.950Z,99.90
2023-05-04T06:29:32.980Z,99.90
2023-05-04T06:32:02.347Z,99.90
2023-05-04T06:34:30.670Z,99.90
2023-05-04T06:36:58.636Z,99.90
2023-05-04T06:39:26.719Z,99.90
2023-05-04T06:41:55.029Z,99.90
2023-05-04T06:44:23.018Z,99.90
2023-05-04T06:46:51.276Z,99.90
2023-05-04T06:49:20.651Z,99.90
2023-05-04T06:51:48.677Z,99.90
2023-05-04T06:54:16.756Z,99.90
2023-05-04T06:56:44.754Z,99.90
2023-05-04T06:59:13.233Z,99.90
2023-05-04T07:01:41.505Z,99.90
2023-05-04T07:04:09.835Z,99.90
2023-05-04T07:06:39.702Z,99.90
2023-05-04T07:09:08.319Z,99.90
2023-05-04T07:11:36.280Z,99.90
2023-05-04T07:14:04.332Z,99.90
2023-05-04T07:16:33.053Z,99.90
2023-05-04T07:19:01.141Z,99.90
2023-05-04T07:21:29.774Z,99.90
2023-05-04T07:23:59.259Z,99.90
2023-05-04T07:26:27.258Z,99.90
2023-05-04T07:28:55.278Z,99.90
2023-05-04T07:31:23.411Z,99.90
2023-05-04T07:33:51.396Z,99.90
2023-05-04T07:36:19.400Z,99.90
2023-05-04T07:38:47.439Z,99.90
2023-05-04T07:41:16.793Z,99.90
2023-05-04T07:43:44.754Z,99.90
2023-05-04T07:46:12.812Z,99.90
2023-05-04T07:48:40.822Z,99.90
2023-05-04T07:51:13.004Z,99.90
2023-05-04T07:53:41.063Z,99.90
2023-05-04T07:56:09.676Z,99.90
2023-05-04T07:58:39.129Z,99.90
2023-05-04T08:01:07.093Z,99.90
2023-05-04T08:03:35.068Z,99.90
2023-05-04T08:06:03.333Z,99.90
2023-05-04T08:08:31.292Z,99.90
2023-05-04T08:11:11.965Z,99.90
2023-05-04T08:13:47.729Z,99.90
2023-05-04T08:16:16.159Z,99.90
2023-05-04T08:18:44.660Z,99.90
2023-05-04T08:21:12.623Z,99.90
2023-05-04T08:23:40.589Z,99.90
2023-05-04T08:26:09.127Z,99.90
2023-05-04T08:28:37.849Z,99.90
2023-05-04T08:31:07.871Z,99.90
2023-05-04T08:33:36.019Z,99.90
2023-05-04T08:36:05.318Z,99.90
2023-05-04T08:38:33.271Z,99.90
2023-05-04T08:41:03.116Z,99.90
2023-05-04T08:43:31.107Z,99.90
2023-05-04T08:45:59.221Z,99.90
2023-05-04T08:48:28.641Z,99.90
2023-05-04T08:50:56.648Z,99.90
2023-05-04T08:53:25.235Z,99.90
2023-05-04T08:55:55.896Z,99.90
2023-05-04T08:58:25.326Z,99.90
2023-05-04T09:00:53.669Z,99.90
2023-05-04T09:03:22.176Z,99.90
2023-05-04T09:05:52.706Z,99.90
2023-05-04T09:08:21.111Z,99.90
2023-05-04T09:10:49.267Z,99.90
2023-05-04T09:13:17.379Z,99.90
2023-05-04T09:15:54.481Z,99.90
2023-05-04T09:18:23.082Z,99.90
2023-05-04T09:20:52.493Z,99.90
2023-05-04T09:23:22.319Z,99.90
2023-05-04T09:25:51.087Z,99.90
2023-05-04T09:28:20.007Z,99.90
2023-05-04T09:30:49.150Z,99.90
2023-05-04T09:33:17.337Z,99.90
2023-05-04T09:35:45.546Z,99.90
2023-05-04T09:38:25.253Z,99.90
2023-05-04T09:40:53.241Z,99.90
2023-05-04T09:43:21.244Z,99.90
2023-05-04T09:45:49.684Z,99.90
2023-05-04T09:48:19.086Z,99.90
2023-05-04T09:50:52.080Z,99.90
2023-05-04T09:53:24.785Z,99.90
2023-05-04T09:55:59.061Z,99.90
2023-05-04T09:58:28.932Z,99.90
2023-05-04T10:00:57.175Z,99.90
2023-05-04T10:03:25.506Z,99.90
2023-05-04T10:05:54.350Z,99.90
2023-05-04T10:08:23.908Z,99.90
2023-05-04T10:10:52.299Z,99.90
2023-05-04T10:13:20.261Z,99.90
2023-05-04T10:15:52.166Z,99.90
2023-05-04T10:18:24.156Z,99.90
2023-05-04T10:20:58.126Z,99.90
2023-05-04T10:23:40.917Z,99.90
2023-05-04T10:26:22.430Z,99.90
2023-05-04T10:28:57.965Z,99.90
2023-05-04T10:31:26.065Z,99.90
2023-05-04T10:33:54.177Z,99.90
2023-05-04T10:36:22.386Z,99.90
2023-05-04T10:38:50.392Z,99.90
2023-05-04T10:41:21.395Z,99.90
2023-05-04T10:43:53.059Z,99.90
2023-05-04T10:46:21.896Z,99.90
2023-05-04T10:48:50.187Z,99.90
2023-05-04T10:51:19.000Z,99.90
2023-05-04T10:53:47.069Z,99.90
2023-05-04T10:56:23.015Z,99.90
2023-05-04T10:58:51.165Z,99.90
2023-05-04T11:01:19.743Z,99.90
2023-05-04T11:03:48.101Z,99.90
2023-05-04T11:06:16.966Z,99.90
2023-05-04T11:08:46.478Z,99.90
2023-05-04T11:11:14.447Z,99.90
2023-05-04T11:13:46.405Z,99.90
2023-05-04T11:16:14.741Z,99.90
2023-05-04T11:18:42.719Z,99.90
2023-05-04T11:21:10.792Z,99.90
2023-05-04T11:23:39.252Z,99.90
2023-05-04T11:26:09.350Z,99.90
2023-05-04T11:28:38.230Z,99.90
2023-05-04T11:31:24.451Z,99.90
2023-05-04T11:33:54.986Z,99.90
2023-05-04T11:36:23.476Z,99.90
2023-05-04T11:38:51.603Z,99.90
2023-05-04T11:41:19.859Z,99.90
2023-05-04T11:43:48.076Z,99.90
2023-05-04T11:46:17.498Z,99.90
2023-05-04T11:48:45.810Z,99.90
2023-05-04T11:51:15.270Z,99.90
2023-05-04T11:53:43.242Z,99.90
2023-05-04T11:56:11.205Z,99.90
2023-05-04T11:58:39.218Z,99.90
2023-05-04T12:01:07.220Z,99.90
2023-05-04T12:03:48.603Z,99.90
2023-05-04T12:06:31.908Z,99.90
2023-05-04T12:09:03.074Z,99.90
2023-05-04T12:11:31.074Z,99.90
2023-05-04T12:14:06.227Z,99.90
2023-05-04T12:16:34.707Z,99.90
2023-05-04T12:19:03.907Z,99.90
2023-05-04T12:21:33.471Z,99.90
2023-05-04T12:24:02.046Z,99.90
2023-05-04T12:26:30.614Z,99.90
2023-05-04T12:28:58.666Z,99.90
2023-05-04T12:31:27.105Z,99.90
2023-05-04T12:33:55.489Z,99.90
2023-05-04T12:36:25.457Z,99.90
2023-05-04T12:38:54.830Z,99.90
2023-05-04T12:41:23.383Z,99.90
2023-05-04T12:43:51.488Z,99.90
2023-05-04T12:46:22.200Z,99.90
2023-05-04T12:48:50.300Z,99.90
2023-05-04T12:51:18.318Z,99.90
2023-05-04T12:53:46.326Z,99.90
2023-05-04T12:56:15.689Z,99.90
2023-05-04T12:58:43.694Z,99.90
2023-05-04T13:01:11.782Z,99.90
2023-05-04T13:03:39.854Z,99.90
2023-05-04T13:06:08.204Z,99.90
2023-05-04T13:08:36.223Z,99.90
2023-05-04T13:11:04.212Z,99.90
2023-05-04T13:13:33.633Z,99.90
2023-05-04T13:16:01.687Z,99.90
2023-05-04T13:18:29.956Z,99.90
2023-05-04T13:20:58.120Z,99.90
2023-05-04T13:23:26.397Z,99.90
2023-05-04T13:25:54.648Z,99.90
2023-05-04T13:28:22.640Z,99.90
2023-05-04T13:30:51.984Z,99.90
2023-05-04T13:33:29.624Z,99.90
2023-05-04T13:35:58.876Z,99.90
2023-05-04T13:38:27.319Z,99.90
2023-05-04T13:44:22.778Z,99.90
2023-05-04T13:46:52.181Z,99.90
2023-05-04T13:49:20.251Z,99.90
2023-05-04T13:51:48.293Z,99.90
2023-05-04T13:54:18.164Z,99.90
2023-05-04T13:56:46.203Z,99.90
2023-05-04T13:59:14.357Z,99.90
2023-05-04T14:01:42.495Z,99.90
2023-05-04T14:04:13.197Z,99.90
2023-05-04T14:06:43.122Z,99.90
2023-05-04T14:09:11.193Z,99.90
2023-05-04T14:11:39.143Z,99.90
2023-05-04T14:14:07.110Z,99.70
2023-05-04T14:16:36.139Z,99.90
2023-05-04T14:19:05.447Z,99.90
2023-05-04T14:21:37.481Z,99.90
2023-05-04T14:24:05.549Z,99.90
2023-05-04T14:26:33.617Z,99.90
2023-05-04T14:29:10.203Z,99.00
2023-05-04T14:31:39.350Z,99.60
2023-05-04T14:34:07.848Z,97.40
2023-05-04T14:36:38.299Z,97.10
2023-05-04T14:39:06.480Z,96.40
2023-05-04T14:41:37.186Z,94.30
2023-05-04T14:44:05.590Z,91.00
2023-05-04T14:46:33.753Z,91.20
2023-05-04T14:49:03.818Z,92.20
2023-05-04T14:51:35.572Z,91.30
2023-05-04T14:54:05.122Z,90.90
2023-05-04T14:56:33.175Z,90.40
2023-05-04T14:59:01.707Z,89.60
2023-05-04T15:01:29.781Z,90.90
2023-05-04T15:03:58.002Z,90.30
2023-05-04T15:06:27.228Z,90.10
2023-05-04T15:08:55.252Z,90.00
2023-05-04T15:11:24.591Z,90.00
2023-05-04T15:13:52.504Z,90.30
2023-05-04T15:16:20.484Z,90.40
2023-05-04T15:18:48.545Z,90.20
2023-05-04T15:21:16.508Z,90.00
2023-05-04T15:23:44.649Z,90.20
2023-05-04T15:26:12.843Z,90.80
2023-05-04T15:28:46.619Z,91.40
2023-05-04T15:31:15.132Z,91.60
2023-05-04T15:33:43.860Z,91.40
2023-05-04T15:36:11.882Z,91.10
2023-05-04T15:38:39.884Z,91.40
2023-05-04T15:41:07.993Z,91.00
2023-05-04T15:43:36.250Z,91.10
2023-05-04T15:46:05.656Z,91.30
2023-05-04T15:48:33.665Z,90.80
2023-05-04T15:51:01.671Z,91.40
2023-05-04T15:53:29.706Z,90.40
2023-05-04T15:55:57.742Z,88.90
2023-05-04T15:58:26.283Z,90.70
2023-05-04T16:00:54.311Z,91.10
2023-05-04T16:03:26.762Z,91.00
2023-05-04T16:05:54.799Z,91.80
2023-05-04T16:08:22.834Z,89.80
2023-05-04T16:10:52.000Z,90.50
2023-05-04T16:13:20.166Z,91.50
2023-05-04T16:15:50.380Z,91.20
2023-05-04T16:18:18.550Z,91.50
2023-05-04T16:20:48.209Z,91.30
2023-05-04T16:23:20.983Z,91.60
2023-05-04T16:25:48.963Z,90.60
2023-05-04T16:28:17.252Z,90.10
2023-05-04T16:30:45.602Z,91.30
2023-05-04T16:33:14.749Z,92.00
2023-05-04T16:35:42.764Z,91.40
2023-05-04T16:38:13.901Z,92.50
2023-05-04T16:40:42.554Z,92.40
2023-05-04T16:43:11.334Z,92.40
2023-05-04T16:45:39.372Z,92.90
2023-05-04T16:48:07.669Z,93.20
2023-05-04T16:50:35.744Z,92.10
2023-05-04T16:53:03.895Z,92.90
2023-05-04T16:55:33.301Z,93.20
2023-05-04T16:58:01.275Z,93.10
2023-05-04T17:00:29.624Z,93.10
2023-05-04T17:02:57.685Z,93.40
2023-05-04T17:05:25.781Z,93.70
2023-05-04T17:07:54.062Z,94.10
2023-05-04T17:10:22.285Z,94.40
2023-05-04T17:12:55.192Z,94.50
2023-05-04T17:15:23.406Z,94.30
2023-05-04T17:17:51.467Z,93.30
2023-05-04T17:20:19.749Z,93.90
2023-05-04T17:22:48.418Z,94.00
2023-05-04T17:25:21.461Z,93.10
2023-05-04T17:27:49.555Z,93.80
2023-05-04T17:30:18.907Z,94.30
2023-05-04T17:32:46.950Z,93.90
2023-05-04T17:35:25.458Z,93.80
2023-05-04T17:37:57.607Z,93.50
2023-05-04T17:40:29.481Z,94.00
2023-05-04T17:43:00.358Z,94.10
2023-05-04T17:45:29.811Z,94.20
2023-05-04T17:47:58.225Z,94.10
2023-05-04T17:50:26.755Z,94.80
2023-05-04T17:52:55.201Z,95.00
2023-05-04T17:55:25.750Z,95.20
2023-05-04T17:57:54.107Z,95.00
2023-05-04T18:00:23.445Z,95.40
2023-05-04T18:02:52.955Z,95.20
2023-05-04T18:05:21.132Z,95.40
2023-05-04T18:07:49.196Z,95.50
2023-05-04T18:10:19.472Z,95.40
2023-05-04T18:12:48.007Z,95.50
2023-05-04T18:15:18.854Z,95.40
2023-05-04T18:17:48.557Z,95.40
2023-05-04T18:20:18.324Z,95.60
2023-05-04T18:22:46.552Z,95.40
2023-05-04T18:25:15.312Z,95.40
2023-05-04T18:27:43.342Z,95.40
2023-05-04T18:30:11.809Z,95.70
2023-05-04T18:32:39.919Z,95.30
2023-05-04T18:35:08.380Z,95.40
2023-05-04T18:37:37.756Z,95.50
2023-05-04T18:40:06.575Z,95.60
2023-05-04T18:42:35.050Z,95.70
2023-05-04T18:45:03.037Z,95.80
2023-05-04T18:47:31.097Z,95.50
2023-05-04T18:50:00.472Z,95.70
2023-05-04T18:52:28.496Z,95.90
2023-05-04T18:54:57.839Z,96.20
2023-05-04T18:57:26.717Z,96.30
2023-05-04T18:59:55.664Z,96.60
2023-05-04T19:02:26.101Z,96.70
2023-05-04T19:04:55.735Z,96.70
2023-05-04T19:07:23.706Z,96.50
2023-05-04T19:09:53.101Z,96.70
2023-05-04T19:12:22.439Z,97.00
2023-05-04T19:14:51.150Z,97.30
2023-05-04T19:17:19.310Z,97.50
2023-05-04T19:19:48.606Z,97.10
2023-05-04T19:22:16.904Z,97.60
2023-05-04T19:24:44.900Z,98.00
2023-05-04T19:27:12.860Z,98.10
2023-05-04T19:29:42.245Z,99.00
2023-05-04T19:32:22.813Z,99.60
2023-05-04T19:34:52.017Z,99.70
2023-05-04T19:37:20.050Z,99.90
2023-05-04T19:39:48.052Z,99.90
2023-05-04T19:42:16.248Z,99.90
2023-05-04T19:44:45.626Z,99.90
2023-05-04T19:47:16.913Z,99.90
2023-05-04T19:49:47.501Z,99.90
2023-05-04T19:52:15.730Z,99.90
2023-05-04T19:54:45.140Z,99.90
2023-05-04T19:57:13.132Z,99.90
2023-05-04T19:59:41.158Z,99.90
2023-05-04T20:02:10.789Z,99.90
2023-05-04T20:04:38.893Z,99.90
2023-05-04T20:07:07.124Z,99.90
2023-05-04T20:09:35.903Z,99.90
2023-05-04T20:12:04.454Z,99.90
2023-05-04T20:14:32.492Z,99.90
2023-05-04T20:17:00.666Z,99.90
2023-05-04T20:19:30.239Z,99.90
2023-05-04T20:21:58.302Z,99.90
2023-05-04T20:24:26.738Z,99.90
2023-05-04T20:26:54.758Z,99.90
2023-05-04T20:29:22.728Z,99.90
2023-05-04T20:31:50.894Z,99.90
2023-05-04T20:34:19.216Z,99.90
2023-05-04T20:36:49.672Z,99.90
2023-05-04T20:39:17.963Z,99.90
2023-05-04T20:41:46.059Z,99.90
2023-05-04T20:44:14.114Z,99.90
2023-05-04T20:46:42.066Z,99.90
2023-05-04T20:49:10.113Z,99.90
2023-05-04T20:51:38.099Z,99.90
2023-05-04T20:54:07.442Z,99.90
2023-05-04T20:56:35.497Z,99.90
2023-05-04T20:59:03.447Z,99.90
2023-05-04T21:01:31.482Z,99.90
2023-05-04T21:03:59.809Z,99.90
2023-05-04T21:06:28.302Z,99.90
2023-05-04T21:08:56.966Z,99.90
2023-05-04T21:11:26.333Z,99.90
2023-05-04T21:13:57.519Z,99.90
2023-05-04T21:16:25.818Z,99.90
2023-05-04T21:18:53.853Z,99.90
2023-05-04T21:21:21.846Z,99.90
2023-05-04T21:23:49.810Z,99.90
2023-05-04T21:26:19.698Z,99.90
2023-05-04T21:28:49.070Z,99.90
2023-05-04T21:31:18.918Z,99.90
2023-05-04T21:33:52.824Z,99.90
2023-05-04T21:36:21.072Z,99.90
2023-05-04T21:38:49.077Z,99.90
2023-05-04T21:41:17.522Z,99.90
2023-05-04T21:43:45.630Z,99.90
2023-05-04T21:46:17.282Z,99.90
2023-05-04T21:48:47.259Z,99.90
2023-05-04T21:51:21.014Z,99.90
2023-05-04T21:53:49.152Z,99.90
2023-05-04T21:56:32.378Z,99.90
2023-05-04T21:59:02.917Z,99.90
2023-05-04T22:01:32.221Z,99.90
2023-05-04T22:04:00.341Z,99.90
2023-05-04T22:06:28.361Z,99.90
2023-05-04T22:08:56.348Z,99.90
2023-05-04T22:11:27.057Z,99.90
2023-05-04T22:13:55.145Z,99.90
2023-05-04T22:16:23.153Z,99.90
2023-05-04T22:18:52.541Z,99.90
2023-05-04T22:21:20.499Z,99.90
2023-05-04T22:23:48.541Z,99.90
2023-05-04T22:26:16.521Z,99.90
2023-05-04T22:28:47.315Z,99.90
2023-05-04T22:31:15.355Z,99.90
2023-05-04T22:33:45.018Z,99.90
2023-05-04T22:36:14.317Z,99.90
2023-05-04T22:38:42.468Z,99.90
2023-05-04T22:41:10.499Z,99.90
2023-05-04T22:43:38.475Z,99.90
2023-05-04T22:46:06.597Z,99.90
2023-05-04T22:48:36.484Z,99.90
2023-05-04T22:51:05.712Z,99.90
2023-05-04T22:53:35.086Z,99.90
2023-05-04T22:56:03.084Z,99.90
2023-05-04T22:58:31.238Z,99.90
2023-05-04T23:00:59.196Z,99.90
2023-05-04T23:03:27.260Z,99.90
2023-05-04T23:05:58.959Z,99.90
2023-05-04T23:08:27.474Z,99.90
2023-05-04T23:10:56.781Z,99.90
2023-05-04T23:13:24.747Z,99.90
2023-05-04T23:15:54.614Z,99.90
2023-05-04T23:18:22.625Z,99.90
2023-05-04T23:20:50.814Z,99.90
2023-05-04T23:23:18.803Z,99.90
2023-05-04T23:25:49.826Z,99.90
2023-05-04T23:28:19.200Z,99.90
2023-05-04T23:30:47.141Z,99.90
2023-05-04T23:33:15.124Z,99.90
2023-05-04T23:35:43.080Z,99.90
2023-05-04T23:38:11.090Z,99.90
2023-05-04T23:40:47.868Z,99.90
2023-05-04T23:43:16.183Z,99.90
2023-05-04T23:45:45.986Z,99.90
2023-05-04T23:48:16.975Z,99.90
2023-05-04T23:50:53.058Z,99.90
2023-05-04T23:53:21.045Z,99.90
2023-05-04T23:55:57.155Z,99.90
2023-05-04T23:58:26.671Z,99.90
